createdAt,value
2018-11-03T00:00:17.437Z,8.30
2018-11-03T00:02:51.141Z,7.97
2018-11-03T00:05:24.583Z,8.15
2018-11-03T00:07:58.303Z,8.48
2018-11-03T00:10:46.798Z,7.65
2018-11-03T00:13:20.208Z,9.48
2018-11-03T00:15:53.786Z,8.38
2018-11-03T00:18:27.399Z,8.75
2018-11-03T00:21:00.943Z,8.83
2018-11-03T00:23:41.005Z,8.78
2018-11-03T00:26:14.750Z,8.73
2018-11-03T00:28:48.408Z,9.65
2018-11-03T00:31:21.849Z,8.80
2018-11-03T00:33:55.523Z,9.18
2018-11-03T00:36:29.223Z,10.30
2018-11-03T00:39:05.008Z,9.85
2018-11-03T00:41:38.595Z,10.20
2018-11-03T00:44:12.059Z,10.70
2018-11-03T00:46:45.747Z,10.23
2018-11-03T00:49:19.610Z,10.25
2018-11-03T00:51:53.306Z,10.68
2018-11-03T00:54:27.192Z,11.20
2018-11-03T00:57:00.739Z,10.55
2018-11-03T00:59:34.255Z,10.85
2018-11-03T01:02:07.855Z,11.35
2018-11-03T01:04:41.388Z,11.43
2018-11-03T01:07:15.021Z,11.30
2018-11-03T01:09:55.544Z,11.00
2018-11-03T01:12:29.329Z,11.48
2018-11-03T01:15:02.969Z,11.00
2018-11-03T01:17:36.550Z,12.55
2018-11-03T01:20:11.959Z,12.20
2018-11-03T01:22:45.568Z,11.88
2018-11-03T01:25:19.192Z,11.57
2018-11-03T01:27:52.635Z,11.45
2018-11-03T01:30:26.293Z,11.57
2018-11-03T01:32:59.760Z,11.43
2018-11-03T01:35:33.293Z,10.23
2018-11-03T01:38:06.967Z,11.45
2018-11-03T01:40:40.703Z,10.80
2018-11-03T01:43:14.238Z,12.13
2018-11-03T01:45:47.863Z,10.78
2018-11-03T01:48:21.377Z,11.43
2018-11-03T01:50:55.585Z,11.50
2018-11-03T01:53:29.237Z,11.57
2018-11-03T01:56:02.820Z,11.78
2018-11-03T01:58:36.537Z,11.33
2018-11-03T02:01:10.000Z,11.85
2018-11-03T02:03:43.655Z,12.40
2018-11-03T02:06:17.241Z,12.70
2018-11-03T02:08:50.877Z,12.00
2018-11-03T02:11:24.748Z,12.05
2018-11-03T02:13:58.246Z,12.10
2018-11-03T02:16:31.842Z,12.68
2018-11-03T02:19:05.499Z,13.48
2018-11-03T02:21:39.136Z,12.88
2018-11-03T02:24:12.852Z,14.10
2018-11-03T02:26:46.504Z,13.08
2018-11-03T02:29:19.843Z,14.15
2018-11-03T02:31:53.268Z,13.53
2018-11-03T02:34:26.847Z,14.85
2018-11-03T02:37:00.515Z,14.40
2018-11-03T02:39:34.079Z,14.98
2018-11-03T02:42:07.616Z,14.40
2018-11-03T02:44:41.137Z,15.05
2018-11-03T02:47:14.749Z,15.50
2018-11-03T02:49:48.272Z,14.75
2018-11-03T02:52:21.941Z,14.60
2018-11-03T02:54:55.369Z,15.50
2018-11-03T02:57:35.769Z,14.83
2018-11-03T03:00:10.604Z,15.70
2018-11-03T03:02:44.161Z,15.30
2018-11-03T03:05:17.726Z,15.28
2018-11-03T03:07:51.271Z,15.05
2018-11-03T03:10:25.008Z,14.55
2018-11-03T03:12:58.669Z,14.70
2018-11-03T03:15:32.344Z,13.80
2018-11-03T03:18:05.870Z,14.33
2018-11-03T03:20:39.364Z,15.20
2018-11-03T03:23:13.184Z,14.25
2018-11-03T03:25:46.737Z,14.73
2018-11-03T03:28:20.559Z,14.18
2018-11-03T03:30:54.191Z,14.55
2018-11-03T03:33:34.514Z,13.95
2018-11-03T03:36:07.982Z,14.13
2018-11-03T03:38:41.468Z,14.47
2018-11-03T03:41:15.070Z,13.70
2018-11-03T03:43:48.658Z,13.85
2018-11-03T03:46:22.130Z,13.28
2018-11-03T03:48:55.741Z,14.07
2018-11-03T03:51:29.127Z,14.83
2018-11-03T03:54:03.193Z,14.05
2018-11-03T03:56:36.879Z,14.23
2018-11-03T03:59:10.486Z,13.93
2018-11-03T04:01:44.019Z,13.50
2018-11-03T04:04:17.461Z,14.15
2018-11-03T04:06:50.918Z,14.03
2018-11-03T04:09:24.556Z,14.00
2018-11-03T04:11:58.051Z,14.50
2018-11-03T04:14:31.612Z,14.45
2018-11-03T04:17:05.361Z,15.60
2018-11-03T04:19:38.839Z,14.78
2018-11-03T04:22:12.576Z,15.98
2018-11-03T04:24:46.087Z,14.30
2018-11-03T04:27:19.613Z,15.25
2018-11-03T04:29:53.388Z,14.03
2018-11-03T04:32:27.073Z,15.32
2018-11-03T04:35:00.572Z,15.75
2018-11-03T04:37:33.991Z,14.65
2018-11-03T04:40:09.667Z,15.38
2018-11-03T04:42:43.200Z,15.13
2018-11-03T04:45:16.919Z,15.48
2018-11-03T04:47:50.527Z,15.48
2018-11-03T04:50:24.287Z,15.43
2018-11-03T04:52:57.914Z,15.15
2018-11-03T04:55:31.512Z,17.15
2018-11-03T04:58:04.945Z,16.37
2018-11-03T05:00:38.710Z,16.25
2018-11-03T05:03:12.219Z,17.17
2018-11-03T05:05:45.812Z,17.92
2018-11-03T05:08:19.357Z,17.55
2018-11-03T05:10:59.807Z,18.37
2018-11-03T05:13:33.446Z,17.20
2018-11-03T05:16:07.117Z,16.57
2018-11-03T05:18:41.000Z,17.48
2018-11-03T05:21:14.795Z,18.02
2018-11-03T05:23:48.325Z,18.40
2018-11-03T05:26:21.864Z,17.57
2018-11-03T05:28:55.331Z,18.70
2018-11-03T05:31:28.984Z,18.25
2018-11-03T05:34:02.379Z,16.82
2018-11-03T05:36:35.900Z,17.23
2018-11-03T05:39:10.728Z,17.15
2018-11-03T05:41:44.335Z,19.23
2018-11-03T05:44:17.824Z,17.67
2018-11-03T05:46:51.669Z,17.60
2018-11-03T05:49:25.236Z,16.55
2018-11-03T05:51:58.868Z,17.48
2018-11-03T05:54:32.671Z,17.77
2018-11-03T05:57:06.349Z,17.35
2018-11-03T05:59:39.828Z,16.52
2018-11-03T06:02:20.157Z,17.25
2018-11-03T06:04:54.729Z,17.32
2018-11-03T06:07:28.451Z,17.55
2018-11-03T06:10:14.452Z,17.82
2018-11-03T06:12:47.990Z,16.48
2018-11-03T06:15:21.738Z,16.60
2018-11-03T06:17:55.184Z,17.00
2018-11-03T06:20:28.541Z,17.63
2018-11-03T06:23:03.909Z,17.35
2018-11-03T06:25:37.311Z,17.02
2018-11-03T06:28:14.023Z,17.98
2018-11-03T06:30:47.306Z,16.62
2018-11-03T06:33:20.807Z,17.05
2018-11-03T06:35:54.612Z,17.30
2018-11-03T06:38:28.377Z,17.17
2018-11-03T06:41:01.866Z,17.80
2018-11-03T06:43:35.178Z,17.40
2018-11-03T06:46:08.847Z,17.70
2018-11-03T06:48:42.749Z,18.32
2018-11-03T06:51:16.158Z,19.52
2018-11-03T06:53:49.602Z,19.02
2018-11-03T06:56:23.122Z,19.10
2018-11-03T06:58:56.478Z,17.67
2018-11-03T07:01:30.033Z,18.98
2018-11-03T07:04:03.504Z,18.27
2018-11-03T07:06:36.979Z,18.62
2018-11-03T07:09:11.614Z,19.20
2018-11-03T07:11:45.230Z,18.17
2018-11-03T07:14:18.667Z,18.95
2018-11-03T07:16:52.159Z,20.45
2018-11-03T07:19:25.913Z,18.87
2018-11-03T07:21:59.547Z,18.30
2018-11-03T07:24:34.187Z,20.00
2018-11-03T07:27:07.652Z,19.10
2018-11-03T07:29:41.174Z,18.92
2018-11-03T07:32:14.599Z,19.00
2018-11-03T07:34:48.100Z,19.12
2018-11-03T07:37:21.564Z,17.95
2018-11-03T07:39:55.055Z,18.45
2018-11-03T07:42:28.751Z,18.30
2018-11-03T07:45:02.301Z,18.42
2018-11-03T07:47:36.045Z,18.67
2018-11-03T07:50:11.181Z,17.80
2018-11-03T07:52:44.670Z,18.23
2018-11-03T07:55:18.174Z,17.85
2018-11-03T07:57:51.756Z,16.85
2018-11-03T08:00:25.395Z,17.75
2018-11-03T08:02:59.016Z,18.48
2018-11-03T08:05:32.787Z,17.50
2018-11-03T08:08:06.316Z,17.35
2018-11-03T08:10:40.051Z,17.65
2018-11-03T08:13:13.759Z,16.55
2018-11-03T08:15:47.364Z,16.82
2018-11-03T08:18:20.820Z,16.42
2018-11-03T08:20:54.595Z,16.95
2018-11-03T08:23:28.151Z,16.80
2018-11-03T08:26:01.589Z,17.73
2018-11-03T08:28:35.283Z,15.75
2018-11-03T08:31:08.853Z,16.67
2018-11-03T08:33:42.499Z,17.57
2018-11-03T08:36:16.189Z,16.12
2018-11-03T08:38:49.791Z,16.87
2018-11-03T08:41:23.920Z,16.62
2018-11-03T08:43:57.469Z,16.65
2018-11-03T08:46:31.494Z,16.27
2018-11-03T08:49:05.325Z,16.62
2018-11-03T08:51:38.895Z,16.37
2018-11-03T08:54:12.459Z,15.25
2018-11-03T08:56:46.194Z,17.73
2018-11-03T08:59:19.803Z,16.10
2018-11-03T09:01:53.373Z,16.85
2018-11-03T09:04:27.076Z,16.77
2018-11-03T09:07:00.751Z,17.10
2018-11-03T09:09:34.542Z,17.67
2018-11-03T09:12:08.260Z,16.77
2018-11-03T09:14:41.912Z,16.27
2018-11-03T09:17:15.308Z,15.78
2018-11-03T09:19:49.155Z,16.02
2018-11-03T09:22:22.831Z,15.28
2018-11-03T09:24:56.305Z,14.80
2018-11-03T09:27:30.190Z,13.62
2018-11-03T09:30:04.194Z,14.85
2018-11-03T09:32:37.876Z,14.20
2018-11-03T09:35:12.538Z,13.25
2018-11-03T09:37:46.606Z,14.33
2018-11-03T09:40:20.125Z,14.05
2018-11-03T09:42:53.742Z,13.35
2018-11-03T09:45:27.285Z,13.60
2018-11-03T09:48:00.869Z,13.65
2018-11-03T09:50:34.590Z,12.50
2018-11-03T09:53:08.296Z,13.30
2018-11-03T09:55:41.848Z,12.20
2018-11-03T09:58:15.495Z,11.85
2018-11-03T10:00:49.171Z,12.33
2018-11-03T10:03:22.732Z,12.10
2018-11-03T10:05:56.223Z,11.80
2018-11-03T10:08:29.871Z,10.53
2018-11-03T10:11:03.444Z,10.15
2018-11-03T10:13:36.977Z,8.40
2018-11-03T10:16:10.459Z,8.10
2018-11-03T10:18:44.044Z,6.97
2018-11-03T10:21:17.549Z,7.25
2018-11-03T10:23:51.089Z,5.53
2018-11-03T10:26:24.709Z,5.20
2018-11-03T10:28:58.311Z,5.30
2018-11-03T10:31:31.810Z,5.42
2018-11-03T10:34:05.291Z,5.67
2018-11-03T10:36:38.943Z,6.05
2018-11-03T10:39:12.983Z,5.58
2018-11-03T10:41:46.482Z,5.08
2018-11-03T10:44:19.991Z,4.87
2018-11-03T10:46:53.479Z,4.67
2018-11-03T10:49:26.963Z,4.83
2018-11-03T10:52:00.409Z,4.47
2018-11-03T10:54:34.022Z,4.92
2018-11-03T10:57:07.931Z,5.10
2018-11-03T10:59:41.515Z,5.67
2018-11-03T11:02:21.231Z,5.15
2018-11-03T11:05:00.607Z,4.92
2018-11-03T11:07:40.141Z,6.05
2018-11-03T11:10:19.502Z,5.95
2018-11-03T11:12:53.508Z,4.22
2018-11-03T11:15:26.997Z,5.30
2018-11-03T11:18:00.380Z,10.93
2018-11-03T11:20:33.924Z,5.78
2018-11-03T11:23:07.613Z,4.35
2018-11-03T11:25:41.026Z,4.10
2018-11-03T11:28:14.400Z,4.95
2018-11-03T11:30:47.792Z,4.65
2018-11-03T11:33:21.405Z,4.83
2018-11-03T11:35:55.089Z,4.33
2018-11-03T11:38:28.588Z,4.75
2018-11-03T11:41:02.098Z,4.90
2018-11-03T11:43:35.795Z,3.98
2018-11-03T11:48:45.289Z,3.87
2018-11-03T11:51:19.051Z,4.65
2018-11-03T11:53:52.625Z,4.20
2018-11-03T11:56:26.430Z,4.20
2018-11-03T11:59:00.179Z,5.08
2018-11-03T12:01:34.868Z,4.65
2018-11-03T12:04:08.898Z,4.12
2018-11-03T12:09:20.659Z,3.60
2018-11-03T12:14:33.482Z,3.80
2018-11-03T12:17:07.014Z,3.75
2018-11-03T12:19:40.715Z,3.50
2018-11-03T12:22:14.325Z,3.98
2018-11-03T12:24:47.807Z,4.95
2018-11-03T12:27:21.314Z,7.87
2018-11-03T12:29:54.780Z,8.53
2018-11-03T12:32:28.235Z,4.70
2018-11-03T12:35:01.892Z,4.58
2018-11-03T12:37:35.852Z,5.87
2018-11-03T12:40:14.774Z,3.70
2018-11-03T12:42:48.282Z,4.47
2018-11-03T12:45:21.941Z,4.40
2018-11-03T12:47:55.566Z,4.58
2018-11-03T12:50:29.106Z,4.80
2018-11-03T12:53:02.572Z,3.60
2018-11-03T12:55:35.963Z,4.15
2018-11-03T12:58:09.468Z,4.70
2018-11-03T13:00:43.045Z,4.20
2018-11-03T13:03:16.834Z,3.92
2018-11-03T13:05:50.426Z,3.27
2018-11-03T13:08:23.768Z,4.20
2018-11-03T13:10:57.377Z,3.33
2018-11-03T13:13:30.785Z,4.10
2018-11-03T13:16:04.432Z,3.30
2018-11-03T13:18:38.063Z,3.70
2018-11-03T13:21:11.536Z,5.22
2018-11-03T13:23:44.998Z,3.58
2018-11-03T13:26:18.600Z,4.95
2018-11-03T13:28:52.127Z,4.10
2018-11-03T13:31:25.495Z,3.95
2018-11-03T13:33:58.915Z,4.15
2018-11-03T13:36:32.560Z,3.00
2018-11-03T13:39:07.558Z,3.22
2018-11-03T13:41:41.263Z,4.92
2018-11-03T13:44:14.694Z,3.60
2018-11-03T13:46:48.315Z,4.12
2018-11-03T13:49:22.081Z,4.00
2018-11-03T13:51:55.512Z,3.72
2018-11-03T13:54:31.367Z,4.60
2018-11-03T13:57:04.969Z,4.33
2018-11-03T13:59:38.431Z,5.22
2018-11-03T14:02:11.981Z,6.58
2018-11-03T14:04:45.516Z,6.65
2018-11-03T14:07:19.231Z,9.28
2018-11-03T14:09:52.613Z,7.83
2018-11-03T14:12:26.256Z,4.97
2018-11-03T14:15:00.043Z,7.60
2018-11-03T14:17:33.567Z,7.60
2018-11-03T14:20:08.861Z,4.95
2018-11-03T14:22:43.340Z,4.45
2018-11-03T14:25:17.751Z,3.65
2018-11-03T14:27:51.432Z,2.45
2018-11-03T14:30:25.040Z,2.95
2018-11-03T14:32:58.660Z,2.60
2018-11-03T14:35:32.199Z,2.80
2018-11-03T14:38:05.644Z,2.60
2018-11-03T14:40:39.240Z,2.45
2018-11-03T14:43:13.008Z,2.52
2018-11-03T14:45:46.606Z,2.83
2018-11-03T14:48:20.243Z,2.35
2018-11-03T14:50:54.026Z,3.00
2018-11-03T14:53:27.500Z,2.45
2018-11-03T14:56:01.188Z,2.52
2018-11-03T14:58:34.943Z,3.10
2018-11-03T15:01:08.523Z,3.20
2018-11-03T15:03:42.166Z,3.25
2018-11-03T15:06:15.527Z,2.87
2018-11-03T15:08:48.953Z,2.67
2018-11-03T15:11:22.784Z,3.30
2018-11-03T15:13:56.670Z,2.80
2018-11-03T15:16:30.337Z,2.55
2018-11-03T15:19:04.453Z,2.80
2018-11-03T15:21:38.095Z,3.22
2018-11-03T15:24:11.725Z,2.80
2018-11-03T15:26:45.289Z,3.20
2018-11-03T15:29:18.729Z,2.67
2018-11-03T15:31:52.363Z,3.50
2018-11-03T15:34:25.966Z,2.98
2018-11-03T15:36:59.569Z,3.00
2018-11-03T15:39:33.011Z,3.00
2018-11-03T15:42:06.415Z,3.30
2018-11-03T15:44:39.847Z,2.58
2018-11-03T15:47:13.398Z,3.25
2018-11-03T15:49:46.946Z,3.52
2018-11-03T15:52:20.604Z,3.42
2018-11-03T15:54:54.430Z,3.25
2018-11-03T15:57:28.244Z,3.47
2018-11-03T16:00:01.890Z,2.80
2018-11-03T16:02:35.501Z,2.80
2018-11-03T16:05:08.837Z,6.85
2018-11-03T16:07:43.003Z,4.97
2018-11-03T16:10:16.732Z,5.08
2018-11-03T16:12:50.521Z,3.65
2018-11-03T16:15:24.006Z,3.42
2018-11-03T16:17:57.400Z,3.27
2018-11-03T16:20:31.056Z,2.75
2018-11-03T16:23:04.635Z,3.27
2018-11-03T16:25:38.283Z,3.20
2018-11-03T16:28:12.029Z,3.83
2018-11-03T16:30:45.367Z,3.58
2018-11-03T16:33:18.974Z,3.25
2018-11-03T16:35:52.401Z,3.33
2018-11-03T16:38:25.971Z,3.05
2018-11-03T16:40:59.350Z,3.22
2018-11-03T16:43:32.902Z,3.37
2018-11-03T16:46:06.461Z,3.42
2018-11-03T16:48:40.001Z,5.67
2018-11-03T16:51:13.564Z,6.87
2018-11-03T16:53:47.217Z,7.03
2018-11-03T16:56:20.815Z,7.78
2018-11-03T16:58:54.334Z,7.58
2018-11-03T17:01:27.702Z,7.28
2018-11-03T17:04:01.367Z,6.75
2018-11-03T17:06:34.961Z,7.62
2018-11-03T17:09:08.502Z,6.80
2018-11-03T17:11:42.015Z,7.80
2018-11-03T17:14:20.703Z,7.05
2018-11-03T17:16:54.829Z,8.55
2018-11-03T17:19:28.537Z,7.58
2018-11-03T17:22:02.040Z,6.92
2018-11-03T17:24:35.453Z,6.92
2018-11-03T17:27:09.134Z,7.12
2018-11-03T17:29:42.732Z,6.55
2018-11-03T17:32:16.337Z,6.15
2018-11-03T17:34:49.739Z,5.87
2018-11-03T17:37:23.283Z,6.58
2018-11-03T17:39:56.760Z,6.30
2018-11-03T17:42:30.370Z,6.00
2018-11-03T17:45:04.441Z,6.08
2018-11-03T17:47:37.862Z,5.55
2018-11-03T17:50:12.000Z,6.45
2018-11-03T17:52:45.424Z,5.92
2018-11-03T17:55:18.956Z,6.67
2018-11-03T17:57:52.372Z,7.55
2018-11-03T18:00:26.101Z,7.97
2018-11-03T18:02:59.449Z,6.62
2018-11-03T18:05:33.086Z,6.35
2018-11-03T18:08:06.624Z,6.58
2018-11-03T18:10:40.317Z,6.78
2018-11-03T18:13:13.920Z,6.58
2018-11-03T18:15:47.627Z,6.47
2018-11-03T18:18:21.388Z,5.75
2018-11-03T18:20:54.968Z,5.90
2018-11-03T18:23:28.733Z,5.53
2018-11-03T18:26:02.293Z,5.30
2018-11-03T18:28:35.970Z,5.58
2018-11-03T18:31:09.540Z,5.25
2018-11-03T18:33:43.175Z,5.90
2018-11-03T18:36:16.716Z,6.03
2018-11-03T18:38:50.393Z,6.08
2018-11-03T18:41:23.879Z,6.58
2018-11-03T18:43:57.258Z,5.70
2018-11-03T18:46:30.637Z,5.97
2018-11-03T18:49:04.187Z,6.45
2018-11-03T18:51:37.789Z,6.70
2018-11-03T18:54:11.469Z,7.00
2018-11-03T18:56:44.981Z,7.10
2018-11-03T18:59:18.779Z,7.78
2018-11-03T19:01:52.167Z,8.53
2018-11-03T19:04:25.673Z,8.75
2018-11-03T19:06:59.288Z,7.70
2018-11-03T19:09:32.767Z,8.10
2018-11-03T19:12:06.773Z,8.03
2018-11-03T19:14:40.355Z,7.22
2018-11-03T19:17:14.079Z,6.92
2018-11-03T19:19:47.495Z,7.12
2018-11-03T19:22:21.072Z,6.25
2018-11-03T19:24:55.031Z,6.83
2018-11-03T19:27:28.714Z,7.10
2018-11-03T19:30:04.089Z,6.53
2018-11-03T19:32:38.148Z,7.72
2018-11-03T19:35:11.885Z,7.50
2018-11-03T19:37:45.457Z,7.08
2018-11-03T19:40:19.221Z,6.85
2018-11-03T19:42:52.798Z,7.85
2018-11-03T19:45:26.663Z,7.47
2018-11-03T19:48:00.273Z,8.45
2018-11-03T19:50:33.926Z,7.97
2018-11-03T19:55:40.721Z,8.85
2018-11-03T19:58:14.281Z,8.98
2018-11-03T20:00:47.715Z,8.70
2018-11-03T20:03:21.200Z,8.50
2018-11-03T20:05:54.854Z,8.23
2018-11-03T20:08:28.424Z,8.15
2018-11-03T20:11:01.892Z,7.92
2018-11-03T20:13:35.320Z,7.33
2018-11-03T20:16:08.917Z,9.63
2018-11-03T20:18:42.384Z,7.67
2018-11-03T20:21:22.702Z,7.90
2018-11-03T20:23:56.304Z,8.45
2018-11-03T20:26:29.930Z,7.58
2018-11-03T20:29:03.535Z,7.78
2018-11-03T20:31:37.234Z,7.85
2018-11-03T20:34:10.677Z,7.28
2018-11-03T20:36:44.287Z,7.90
2018-11-03T20:39:17.817Z,7.40
2018-11-03T20:41:51.508Z,7.85
2018-11-03T20:44:25.015Z,9.05
2018-11-03T20:46:58.451Z,8.30
2018-11-03T20:49:31.878Z,9.33
2018-11-03T20:52:05.210Z,8.23
2018-11-03T20:54:38.607Z,8.43
2018-11-03T20:57:11.985Z,8.65
2018-11-03T20:59:45.597Z,7.90
2018-11-03T21:02:19.006Z,7.95
2018-11-03T21:04:52.537Z,8.30
2018-11-03T21:07:26.138Z,8.53
2018-11-03T21:09:59.665Z,8.33
2018-11-03T21:12:33.287Z,7.87
2018-11-03T21:15:07.035Z,8.03
2018-11-03T21:17:40.530Z,9.10
2018-11-03T21:20:14.003Z,8.95
2018-11-03T21:22:47.454Z,9.30
2018-11-03T21:25:20.802Z,9.18
2018-11-03T21:27:54.307Z,9.55
2018-11-03T21:30:27.901Z,9.40
2018-11-03T21:33:01.586Z,10.20
2018-11-03T21:35:35.151Z,9.75
2018-11-03T21:38:09.095Z,9.68
2018-11-03T21:40:42.457Z,10.00
2018-11-03T21:43:15.825Z,10.30
2018-11-03T21:45:49.477Z,10.32
2018-11-03T21:48:23.172Z,10.40
2018-11-03T21:50:56.762Z,10.88
2018-11-03T21:53:30.496Z,11.15
2018-11-03T21:56:04.749Z,11.55
2018-11-03T21:58:38.047Z,12.65
2018-11-03T22:01:11.710Z,12.23
2018-11-03T22:03:45.215Z,12.37
2018-11-03T22:06:18.893Z,12.33
2018-11-03T22:08:52.545Z,12.33
2018-11-03T22:11:26.014Z,11.80
2018-11-03T22:14:01.198Z,12.47
2018-11-03T22:16:35.066Z,13.13
2018-11-03T22:19:08.756Z,12.43
2018-11-03T22:21:42.396Z,13.13
2018-11-03T22:24:15.907Z,13.43
2018-11-03T22:26:49.396Z,13.05
2018-11-03T22:29:23.058Z,12.65
2018-11-03T22:31:56.760Z,12.85
2018-11-03T22:34:30.223Z,11.55
2018-11-03T22:37:03.688Z,12.00
2018-11-03T22:39:37.290Z,12.47
2018-11-03T22:42:11.032Z,12.43
2018-11-03T22:44:44.561Z,13.98
2018-11-03T22:47:18.152Z,13.68
2018-11-03T22:49:51.784Z,14.18
2018-11-03T22:52:25.523Z,14.10
2018-11-03T22:54:59.311Z,14.28
2018-11-03T22:57:32.708Z,13.18
2018-11-03T23:00:08.330Z,14.43
2018-11-03T23:02:42.757Z,14.73
2018-11-03T23:05:16.482Z,15.10
2018-11-03T23:07:49.972Z,14.38
2018-11-03T23:10:23.572Z,15.03
2018-11-03T23:12:57.136Z,15.20
2018-11-03T23:15:30.483Z,14.43
2018-11-03T23:18:04.218Z,14.70
2018-11-03T23:20:37.754Z,14.15
2018-11-03T23:23:11.191Z,15.90
2018-11-03T23:25:44.766Z,13.83
2018-11-03T23:28:18.142Z,13.68
2018-11-03T23:30:51.771Z,14.80
2018-11-03T23:33:25.325Z,14.63
2018-11-03T23:35:58.756Z,14.23
2018-11-03T23:38:32.244Z,14.10
2018-11-03T23:41:05.755Z,13.83
2018-11-03T23:43:39.346Z,14.13
2018-11-03T23:46:13.101Z,14.38
2018-11-03T23:48:46.763Z,13.93
2018-11-03T23:51:20.542Z,14.20
2018-11-03T23:53:54.111Z,14.58
2018-11-03T23:56:27.551Z,14.28
2018-11-03T23:59:01.069Z,15.43
